Time;durP1;ratioP1;P1;durP2;ratioP2;P2;SDS_P1;SDS_P2;PMS_P1;PMS_P2;Temp;Humidity;BMP_temperature;BMP_pressure;BME280_temperature;BME280_humidity;BME280_pressure;Samples;Min_cycle;Max_cycle;Signal;HPM_P1;HPM_P2
2022/09/17 00:00:58;;;;;;;;;2.00;2.00;;;;;-144.76;100.00;60493.00;5050586;28;45755;-79
2022/09/17 00:03:24;;;;;;;;;1.00;1.00;;;;;-144.76;100.00;60493.00;5049547;28;46499;-79
2022/09/17 00:05:49;;;;;;;;;1.00;1.00;;;;;-144.76;100.00;60493.00;5050816;28;45223;-79
2022/09/17 00:08:14;;;;;;;;;1.00;1.00;;;;;-144.76;100.00;60493.00;5048991;28;45121;-79
2022/09/17 00:10:41;;;;;;;;;1.00;1.00;;;;;-144.76;100.00;60493.00;5045755;28;45136;-80
2022/09/17 00:13:07;;;;;;;;;2.00;2.00;;;;;-144.76;100.00;60493.00;5047418;28;45210;-79
2022/09/17 00:15:39;;;;;;;;;1.75;1.75;;;;;-144.76;100.00;60493.00;5047129;28;44906;-79
2022/09/17 00:18:04;;;;;;;;;2.00;1.50;;;;;-144.76;100.00;60493.00;5047631;28;45628;-79
2022/09/17 00:20:29;;;;;;;;;1.50;1.50;;;;;-144.76;100.00;60493.00;5045378;28;45471;-79
2022/09/17 00:22:55;;;;;;;;;2.25;2.25;;;;;-144.76;100.00;60493.00;5047377;28;45002;-79
2022/09/17 00:25:20;;;;;;;;;1.67;1.67;;;;;-144.76;100.00;60493.00;5047403;28;52161;-79
2022/09/17 00:27:45;;;;;;;;;0.50;0.50;;;;;-144.76;100.00;60493.00;5042625;28;45280;-79
2022/09/17 00:30:11;;;;;;;;;2.25;1.75;;;;;-144.76;100.00;60493.00;5047172;28;45253;-79
2022/09/17 00:32:37;;;;;;;;;3.00;2.00;;;;;-144.76;100.00;60493.00;5044519;28;46277;-79
2022/09/17 00:35:03;;;;;;;;;1.00;1.00;;;;;-144.76;100.00;60493.00;5051145;28;45116;-79
2022/09/17 00:37:28;;;;;;;;;1.00;1.00;;;;;-144.76;100.00;60493.00;5050043;28;45246;-79
2022/09/17 00:39:53;;;;;;;;;2.00;2.00;;;;;-144.76;100.00;60493.00;5047498;28;48356;-79
2022/09/17 00:42:18;;;;;;;;;1.33;1.00;;;;;-144.76;100.00;60493.00;5041904;28;58489;-80
2022/09/17 00:44:44;;;;;;;;;1.25;1.25;;;;;-144.76;100.00;60493.00;5048792;28;44920;-80
2022/09/17 00:47:41;;;;;;;;;1.00;1.00;;;;;-144.76;100.00;60493.00;5030062;28;45098;-79
2022/09/17 00:50:27;;;;;;;;;1.00;1.00;;;;;-144.76;100.00;60493.00;5047953;28;44985;-79
2022/09/17 00:52:58;;;;;;;;;2.00;2.00;;;;;-144.76;100.00;60493.00;5048893;28;45138;-79
2022/09/17 00:55:29;;;;;;;;;2.00;1.00;;;;;-144.76;100.00;60493.00;5048031;28;45956;-80
2022/09/17 00:57:58;;;;;;;;;3.00;2.00;;;;;-144.76;100.00;60493.00;5045778;28;45711;-79
2022/09/17 01:00:29;;;;;;;;;0.00;0.00;;;;;-144.76;100.00;60493.00;5045616;28;45466;-79
2022/09/17 01:02:54;;;;;;;;;1.00;1.00;;;;;-144.76;100.00;60493.00;5043602;28;46020;-79
2022/09/17 01:05:45;;;;;;;;;1.67;1.00;;;;;-144.76;100.00;60493.00;5047016;28;51904;-79
2022/09/17 01:08:25;;;;;;;;;0.00;0.00;;;;;-144.76;100.00;60493.00;5027138;28;45412;-79
2022/09/17 01:11:02;;;;;;;;;1.00;1.00;;;;;-144.76;100.00;60493.00;5046472;28;45012;-79
2022/09/17 01:13:44;;;;;;;;;1.00;0.00;;;;;-144.76;100.00;60493.00;5038227;28;52584;-80
2022/09/17 01:16:44;;;;;;;;;1.00;1.00;;;;;-144.76;100.00;60493.00;5047272;28;45021;-80
2022/09/17 01:19:43;;;;;;;;;1.00;1.00;;;;;-144.76;100.00;60493.00;5048425;28;45410;-79
2022/09/17 01:22:23;;;;;;;;;0.00;0.00;;;;;-144.76;100.00;60493.00;5049919;28;45092;-79
2022/09/17 01:24:49;;;;;;;;;0.75;0.25;;;;;-144.76;100.00;60493.00;5051007;28;45672;-80
2022/09/17 01:27:49;;;;;;;;;0.00;0.00;;;;;-144.76;100.00;60493.00;5045669;28;45077;-80
2022/09/17 01:30:48;;;;;;;;;0.00;0.00;;;;;-144.76;100.00;60493.00;5053790;28;44985;-79
2022/09/17 01:33:27;;;;;;;;;1.75;1.00;;;;;-144.76;100.00;60493.00;5048333;28;45285;-79
2022/09/17 01:36:20;;;;;;;;;1.00;1.00;;;;;-144.76;100.00;60493.00;5049846;28;45827;-79
2022/09/17 01:39:05;;;;;;;;;0.50;0.50;;;;;-144.76;100.00;60493.00;5026727;28;45383;-79
2022/09/17 01:41:36;;;;;;;;;0.00;0.00;;;;;-144.76;100.00;60493.00;5051100;28;45049;-79
2022/09/17 01:44:10;;;;;;;;;1.00;1.00;;;;;-144.76;100.00;60493.00;5049921;28;45668;-79
2022/09/17 01:46:43;;;;;;;;;0.00;0.00;;;;;-144.76;100.00;60493.00;5028567;28;48462;-80
2022/09/17 01:49:12;;;;;;;;;1.00;0.75;;;;;-144.76;100.00;60493.00;5049283;28;45301;-80
2022/09/17 01:51:41;;;;;;;;;0.00;0.00;;;;;-144.76;100.00;60493.00;5044407;28;44906;-79
2022/09/17 01:54:25;;;;;;;;;0.50;0.50;;;;;-144.76;100.00;60493.00;5046535;28;45319;-80
2022/09/17 01:57:13;;;;;;;;;2.00;1.00;;;;;-144.76;100.00;60493.00;5047358;28;45078;-79
2022/09/17 01:59:47;;;;;;;;;1.00;1.00;;;;;-144.76;100.00;60493.00;5044257;28;46362;-79
2022/09/17 02:03:00;;;;;;;;;0.75;0.00;;;;;-144.76;100.00;60493.00;5050540;28;45085;-79
2022/09/17 02:05:47;;;;;;;;;1.00;0.25;;;;;-144.76;100.00;60493.00;5016488;28;45203;-80
2022/09/17 02:08:34;;;;;;;;;0.75;0.00;;;;;-144.76;100.00;60493.00;5050530;28;45954;-80
2022/09/17 02:11:08;;;;;;;;;1.00;1.00;;;;;-144.76;100.00;60493.00;5049989;28;45039;-79
2022/09/17 02:13:33;;;;;;;;;0.00;0.00;;;;;-144.76;100.00;60493.00;5044917;28;45720;-79
2022/09/17 02:16:11;;;;;;;;;0.00;0.00;;;;;-144.76;100.00;60493.00;5050652;28;45229;-79
2022/09/17 02:18:54;;;;;;;;;1.00;1.00;;;;;-144.76;100.00;60493.00;5042452;28;46086;-80
2022/09/17 02:21:38;;;;;;;;;0.75;0.75;;;;;-144.76;100.00;60493.00;5051731;28;45028;-79
2022/09/17 02:24:22;;;;;;;;;0.75;0.25;;;;;-144.76;100.00;60493.00;5047477;28;45187;-80
2022/09/17 02:27:14;;;;;;;;;0.00;0.00;;;;;-144.76;100.00;60493.00;5049180;28;45364;-80
2022/09/17 02:29:43;;;;;;;;;1.00;1.00;;;;;-144.76;100.00;60493.00;5044658;28;45522;-80
2022/09/17 02:32:10;;;;;;;;;2.25;1.00;;;;;-144.76;100.00;60493.00;5046684;28;45298;-79
2022/09/17 02:34:36;;;;;;;;;0.00;0.00;;;;;-144.76;100.00;60493.00;5042019;28;45353;-79
2022/09/17 02:37:03;;;;;;;;;0.50;0.25;;;;;-144.76;100.00;60493.00;5045880;28;45310;-80
2022/09/17 02:39:29;;;;;;;;;0.25;0.00;;;;;-144.76;100.00;60493.00;5045653;28;45525;-80
2022/09/17 02:42:05;;;;;;;;;1.00;0.25;;;;;-144.76;100.00;60493.00;5044830;28;45340;-80
2022/09/17 02:45:26;;;;;;;;;0.75;0.75;;;;;-144.76;100.00;60493.00;5046937;28;45450;-80
2022/09/17 02:48:10;;;;;;;;;0.75;0.75;;;;;-144.76;100.00;60493.00;5021673;28;45294;-81
2022/09/17 02:51:02;;;;;;;;;0.50;0.50;;;;;-144.76;100.00;60493.00;5042630;28;46949;-81
2022/09/17 02:53:37;;;;;;;;;1.00;1.00;;;;;-144.76;100.00;60493.00;5044283;28;45543;-81
2022/09/17 02:56:24;;;;;;;;;0.75;0.00;;;;;-144.76;100.00;60493.00;5044227;28;45497;-80
2022/09/17 02:59:18;;;;;;;;;1.75;1.00;;;;;-144.76;100.00;60493.00;5046839;28;45306;-79
2022/09/17 03:01:51;;;;;;;;;0.75;0.75;;;;;-144.76;100.00;60493.00;5041376;28;46039;-80
2022/09/17 03:04:19;;;;;;;;;0.00;0.00;;;;;-144.76;100.00;60493.00;5049479;28;45218;-80
2022/09/17 03:06:46;;;;;;;;;1.00;1.00;;;;;-144.76;100.00;60493.00;5041801;28;45206;-79
2022/09/17 03:09:13;;;;;;;;;1.25;1.00;;;;;-144.76;100.00;60493.00;5049810;28;45532;-80
2022/09/17 03:11:39;;;;;;;;;0.25;0.25;;;;;-144.76;100.00;60493.00;5043727;28;45891;-80
2022/09/17 03:14:04;;;;;;;;;1.00;1.00;;;;;-144.76;100.00;60493.00;5043603;28;45447;-80
2022/09/17 03:16:30;;;;;;;;;1.00;1.00;;;;;-144.76;100.00;60493.00;5048366;28;45207;-79
2022/09/17 03:18:55;;;;;;;;;1.00;1.00;;;;;-144.76;100.00;60493.00;5045288;28;48937;-80
2022/09/17 03:21:20;;;;;;;;;1.00;1.00;;;;;-144.76;100.00;60493.00;5045596;28;69158;-79
2022/09/17 03:23:46;;;;;;;;;2.00;1.00;;;;;-144.76;100.00;60493.00;5030089;28;45348;-81
2022/09/17 03:26:11;;;;;;;;;0.75;0.75;;;;;-144.76;100.00;60493.00;5046012;28;45358;-80
2022/09/17 03:28:36;;;;;;;;;1.00;1.00;;;;;-144.76;100.00;60493.00;5042628;28;45289;-80
2022/09/17 03:31:02;;;;;;;;;1.00;1.00;;;;;-144.76;100.00;60493.00;5046431;28;45099;-81
2022/09/17 03:33:27;;;;;;;;;2.50;1.00;;;;;-144.76;100.00;60493.00;5041500;28;45360;-80
2022/09/17 03:35:52;;;;;;;;;1.00;1.00;;;;;-144.76;100.00;60493.00;5045250;28;45445;-81
2022/09/17 03:38:19;;;;;;;;;1.67;1.00;;;;;-144.76;100.00;60493.00;5040727;28;60424;-80
2022/09/17 03:40:59;;;;;;;;;1.00;1.00;;;;;-144.76;100.00;60493.00;5046383;28;45310;-79
2022/09/17 03:43:25;;;;;;;;;1.00;1.00;;;;;-144.76;100.00;60493.00;5044917;28;45744;-81
2022/09/17 03:45:51;;;;;;;;;1.00;0.75;;;;;-144.76;100.00;60493.00;5028545;28;45096;-80
2022/09/17 03:48:16;;;;;;;;;1.50;1.50;;;;;-144.76;100.00;60493.00;5029660;28;45691;-79
2022/09/17 03:50:42;;;;;;;;;1.67;1.67;;;;;-144.76;100.00;60493.00;5042980;28;60019;-79
2022/09/17 03:53:07;;;;;;;;;1.00;1.00;;;;;-144.76;100.00;60493.00;5027776;28;53626;-79
2022/09/17 03:55:32;;;;;;;;;1.00;1.00;;;;;-144.76;100.00;60493.00;5046111;28;45546;-80
2022/09/17 03:57:58;;;;;;;;;1.25;1.25;;;;;-144.76;100.00;60493.00;5042085;28;45532;-80
2022/09/17 04:00:24;;;;;;;;;0.33;0.00;;;;;-144.76;100.00;60493.00;5048129;28;53895;-80
2022/09/17 04:02:49;;;;;;;;;1.00;1.00;;;;;-144.76;100.00;60493.00;5040331;28;45767;-80
2022/09/17 04:05:14;;;;;;;;;1.00;1.00;;;;;-144.76;100.00;60493.00;5044882;28;45238;-79
2022/09/17 04:07:40;;;;;;;;;1.50;1.00;;;;;-144.76;100.00;60493.00;5048662;28;45061;-79
2022/09/17 04:10:06;;;;;;;;;1.25;1.25;;;;;-144.76;100.00;60493.00;5026943;28;48180;-79
2022/09/17 04:12:31;;;;;;;;;1.00;1.00;;;;;-144.76;100.00;60493.00;5026567;28;45155;-80
2022/09/17 04:14:57;;;;;;;;;1.25;1.00;;;;;-144.76;100.00;60493.00;5043450;28;45284;-81
2022/09/17 04:17:22;;;;;;;;;2.00;1.00;;;;;-144.76;100.00;60493.00;5047415;28;52410;-80
2022/09/17 04:19:48;;;;;;;;;2.00;1.00;;;;;-144.76;100.00;60493.00;5049141;28;45074;-80
2022/09/17 04:22:14;;;;;;;;;1.00;1.00;;;;;-144.76;100.00;60493.00;5044106;28;45647;-81
2022/09/17 04:24:39;;;;;;;;;1.00;1.00;;;;;-144.76;100.00;60493.00;5040400;28;45335;-79
2022/09/17 04:27:04;;;;;;;;;0.33;0.33;;;;;-144.76;100.00;60493.00;5046507;28;53458;-80
2022/09/17 04:29:30;;;;;;;;;1.50;1.00;;;;;-144.76;100.00;60493.00;5045023;28;45079;-80
2022/09/17 04:31:55;;;;;;;;;1.75;1.00;;;;;-144.76;100.00;60493.00;5046004;28;45136;-80
2022/09/17 04:34:20;;;;;;;;;0.67;0.67;;;;;-144.76;100.00;60493.00;5046708;28;61399;-80
2022/09/17 04:36:46;;;;;;;;;1.33;1.33;;;;;-144.76;100.00;60493.00;5042634;28;56612;-80
2022/09/17 04:39:11;;;;;;;;;1.33;1.00;;;;;-144.76;100.00;60493.00;5050145;28;55863;-80
2022/09/17 04:41:36;;;;;;;;;1.25;1.25;;;;;-144.76;100.00;60493.00;5041936;28;45106;-80
2022/09/17 04:44:02;;;;;;;;;2.00;1.75;;;;;-144.76;100.00;60493.00;5049371;28;45069;-80
2022/09/17 04:46:27;;;;;;;;;2.75;2.75;;;;;-144.76;100.00;60493.00;5042879;28;47399;-80
2022/09/17 04:48:52;;;;;;;;;2.00;2.00;;;;;-144.76;100.00;60493.00;5041234;28;64953;-80
2022/09/17 04:51:18;;;;;;;;;1.50;1.25;;;;;-144.76;100.00;60493.00;5048433;28;45208;-79
2022/09/17 04:53:43;;;;;;;;;2.00;1.75;;;;;-144.76;100.00;60493.00;5043494;28;45511;-79
2022/09/17 04:56:08;;;;;;;;;1.00;1.00;;;;;-144.76;100.00;60493.00;5047005;28;49206;-80
2022/09/17 04:58:34;;;;;;;;;1.00;1.00;;;;;-144.76;100.00;60493.00;5047364;28;57020;-81
2022/09/17 05:00:59;;;;;;;;;2.00;1.00;;;;;-144.76;100.00;60493.00;5047951;28;45156;-79
2022/09/17 05:03:24;;;;;;;;;2.00;1.00;;;;;-144.76;100.00;60493.00;5051403;28;45085;-80
2022/09/17 05:05:50;;;;;;;;;2.50;2.50;;;;;-144.76;100.00;60493.00;5047863;28;45190;-80
2022/09/17 05:08:15;;;;;;;;;1.00;1.00;;;;;-144.76;100.00;60493.00;5051107;28;55206;-80
2022/09/17 05:10:40;;;;;;;;;1.00;1.00;;;;;-144.76;100.00;60493.00;5051397;28;56277;-79
2022/09/17 05:13:06;;;;;;;;;1.00;1.00;;;;;-144.76;100.00;60493.00;5048861;28;45151;-80
2022/09/17 05:15:31;;;;;;;;;1.00;1.00;;;;;-144.76;100.00;60493.00;5053412;28;57026;-79
2022/09/17 05:17:56;;;;;;;;;1.00;1.00;;;;;-144.76;100.00;60493.00;5028539;28;47513;-80
2022/09/17 05:20:21;;;;;;;;;2.00;2.00;;;;;-144.76;100.00;60493.00;5047316;28;59119;-80
2022/09/17 05:22:50;;;;;;;;;1.00;1.00;;;;;-144.76;100.00;60493.00;5047167;28;45199;-80
2022/09/17 05:25:18;;;;;;;;;2.00;2.00;;;;;-144.76;100.00;60493.00;5032431;28;45357;-81
2022/09/17 05:27:44;;;;;;;;;1.75;1.75;;;;;-144.76;100.00;60493.00;5047724;28;46054;-80
2022/09/17 05:30:10;;;;;;;;;2.00;2.00;;;;;-144.76;100.00;60493.00;5048227;28;45588;-80
2022/09/17 05:32:36;;;;;;;;;2.00;2.00;;;;;-144.76;100.00;60493.00;5026246;28;45544;-81
2022/09/17 05:35:03;;;;;;;;;1.00;1.00;;;;;-144.76;100.00;60493.00;5046223;28;45487;-80
2022/09/17 05:37:28;;;;;;;;;4.00;4.00;;;;;-144.76;100.00;60493.00;5044729;28;45720;-79
2022/09/17 05:39:54;;;;;;;;;8.00;7.75;;;;;-144.76;100.00;60493.00;5045678;28;45388;-80
2022/09/17 05:42:19;;;;;;;;;7.75;7.25;;;;;-144.76;100.00;60493.00;5049150;28;45167;-80
2022/09/17 05:44:44;;;;;;;;;6.50;6.00;;;;;-144.76;100.00;60493.00;5043020;28;45391;-80
2022/09/17 05:47:09;;;;;;;;;5.67;5.67;;;;;-144.76;100.00;60493.00;5047071;28;57090;-80
2022/09/17 05:49:35;;;;;;;;;5.00;5.00;;;;;-144.76;100.00;60493.00;5044530;28;60443;-80
2022/09/17 05:52:02;;;;;;;;;5.00;4.00;;;;;-144.76;100.00;60493.00;5044299;28;58957;-80
2022/09/17 05:54:27;;;;;;;;;5.50;5.00;;;;;-144.76;100.00;60493.00;5051455;28;45131;-80
2022/09/17 05:56:53;;;;;;;;;5.00;5.00;;;;;-144.76;100.00;60493.00;5044282;28;46018;-80
2022/09/17 05:59:18;;;;;;;;;4.00;3.50;;;;;-144.76;100.00;60493.00;5050493;28;44758;-80
2022/09/17 06:01:44;;;;;;;;;2.50;1.75;;;;;-144.76;100.00;60493.00;5042355;28;45456;-81
2022/09/17 06:04:10;;;;;;;;;2.00;2.00;;;;;-144.76;100.00;60493.00;5046207;28;45456;-81
2022/09/17 06:06:36;;;;;;;;;2.00;2.00;;;;;-144.76;100.00;60493.00;5046003;28;46371;-81
2022/09/17 06:09:02;;;;;;;;;1.75;1.75;;;;;-144.76;100.00;60493.00;5047449;28;45229;-81
2022/09/17 06:11:27;;;;;;;;;2.00;1.75;;;;;-144.76;100.00;60493.00;5048782;28;44897;-81
2022/09/17 06:13:53;;;;;;;;;3.00;2.00;;;;;-144.76;100.00;60493.00;5041606;28;45443;-80
2022/09/17 06:16:20;;;;;;;;;3.00;1.00;;;;;-144.76;100.00;60493.00;5047135;28;45158;-80
2022/09/17 06:18:45;;;;;;;;;3.00;3.00;;;;;-144.76;100.00;60493.00;5032234;28;46365;-81
2022/09/17 06:21:11;;;;;;;;;4.00;4.00;;;;;-144.76;100.00;60493.00;5047034;28;58454;-81
2022/09/17 06:23:36;;;;;;;;;2.67;2.67;;;;;-144.76;100.00;60493.00;5043906;28;57480;-80
2022/09/17 06:26:03;;;;;;;;;1.00;1.00;;;;;-144.76;100.00;60493.00;5050477;28;45543;-80
2022/09/17 06:28:29;;;;;;;;;2.25;2.00;;;;;-144.76;100.00;60493.00;5043656;28;45486;-81
2022/09/17 06:30:59;;;;;;;;;2.00;1.00;;;;;-144.76;100.00;60493.00;5048308;28;45522;-80
2022/09/17 06:33:25;;;;;;;;;1.00;1.00;;;;;-144.76;100.00;60493.00;5043106;28;45443;-81
2022/09/17 06:35:59;;;;;;;;;2.00;2.00;;;;;-144.76;100.00;60493.00;5046159;28;46440;-80
2022/09/17 06:38:27;;;;;;;;;2.00;2.00;;;;;-144.76;100.00;60493.00;5046811;28;45655;-81
2022/09/17 06:40:52;;;;;;;;;1.00;1.00;;;;;-144.76;100.00;60493.00;5045365;28;45002;-81
2022/09/17 06:43:18;;;;;;;;;1.00;1.00;;;;;-144.76;100.00;60493.00;5048926;28;45225;-81
2022/09/17 06:45:43;;;;;;;;;1.00;1.00;;;;;-144.76;100.00;60493.00;5040976;28;45551;-81
2022/09/17 06:48:09;;;;;;;;;1.75;1.00;;;;;-144.76;100.00;60493.00;5028924;28;45506;-81
2022/09/17 06:50:34;;;;;;;;;2.00;1.67;;;;;-144.76;100.00;60493.00;5032240;28;66198;-81
2022/09/17 06:52:59;;;;;;;;;2.25;2.00;;;;;-144.76;100.00;60493.00;5046379;28;45034;-81
2022/09/17 06:55:25;;;;;;;;;0.75;0.75;;;;;-144.76;100.00;60493.00;5051145;28;45708;-81
2022/09/17 06:57:51;;;;;;;;;0.00;0.00;;;;;-144.76;100.00;60493.00;5041224;28;45302;-81
2022/09/17 07:00:16;;;;;;;;;2.25;2.00;;;;;-144.76;100.00;60493.00;5046144;28;45313;-81
2022/09/17 07:02:42;;;;;;;;;1.75;1.75;;;;;-144.76;100.00;60493.00;5049200;28;45554;-81
2022/09/17 07:05:07;;;;;;;;;0.25;0.25;;;;;-144.76;100.00;60493.00;5023639;28;46213;-79
2022/09/17 07:07:34;;;;;;;;;2.00;1.00;;;;;-144.76;100.00;60493.00;5046707;28;45205;-81
2022/09/17 07:10:00;;;;;;;;;2.00;0.00;;;;;-144.76;100.00;60493.00;5048591;28;45369;-80
2022/09/17 07:12:25;;;;;;;;;0.50;0.50;;;;;-144.76;100.00;60493.00;5044114;28;45359;-81
2022/09/17 07:14:50;;;;;;;;;1.00;1.00;;;;;-144.76;100.00;60493.00;5024642;28;60035;-81
2022/09/17 07:17:16;;;;;;;;;0.00;0.00;;;;;-144.76;100.00;60493.00;5042773;28;56866;-83
2022/09/17 07:19:41;;;;;;;;;0.75;0.75;;;;;-144.76;100.00;60493.00;5046832;28;45478;-83
2022/09/17 07:22:07;;;;;;;;;2.00;1.00;;;;;-144.76;100.00;60493.00;5048369;28;44990;-83
2022/09/17 07:24:32;;;;;;;;;0.50;0.50;;;;;-144.76;100.00;60493.00;5045153;28;45471;-83
2022/09/17 07:26:58;;;;;;;;;0.75;0.00;;;;;-144.76;100.00;60493.00;5045473;28;45911;-83
2022/09/17 07:29:25;;;;;;;;;1.25;1.00;;;;;-144.76;100.00;60493.00;5024016;28;45395;-82
2022/09/17 07:31:52;;;;;;;;;1.00;1.00;;;;;-144.76;100.00;60493.00;5025763;28;45333;-81
2022/09/17 07:34:17;;;;;;;;;1.00;1.00;;;;;-144.76;100.00;60493.00;5048680;28;45575;-78
2022/09/17 07:36:43;;;;;;;;;0.00;0.00;;;;;-144.76;100.00;60493.00;5042803;28;56876;-81
2022/09/17 07:39:10;;;;;;;;;2.00;1.00;;;;;-144.76;100.00;60493.00;5050674;28;44910;-82
2022/09/17 07:41:35;;;;;;;;;1.00;1.00;;;;;-144.76;100.00;60493.00;5030915;28;45236;-82
2022/09/17 07:44:01;;;;;;;;;1.00;1.00;;;;;-144.76;100.00;60493.00;5044434;28;49050;-81
2022/09/17 07:46:27;;;;;;;;;1.00;0.50;;;;;-144.76;100.00;60493.00;5050837;28;45327;-81
2022/09/17 07:48:53;;;;;;;;;1.50;1.50;;;;;-144.76;100.00;60493.00;5024036;28;45298;-80
2022/09/17 07:51:24;;;;;;;;;2.33;2.00;;;;;-144.76;100.00;60493.00;5047111;28;58883;-81
2022/09/17 07:53:51;;;;;;;;;0.50;0.00;;;;;-144.76;100.00;60493.00;5040929;28;45983;-81
2022/09/17 07:56:16;;;;;;;;;1.00;1.00;;;;;-144.76;100.00;60493.00;5043260;28;45321;-81
2022/09/17 07:58:41;;;;;;;;;0.25;0.25;;;;;-144.76;100.00;60493.00;5043987;28;45282;-80
2022/09/17 08:01:09;;;;;;;;;1.75;0.00;;;;;-144.76;100.00;60493.00;5045336;28;45459;-81
2022/09/17 08:03:36;;;;;;;;;1.00;1.00;;;;;-144.76;100.00;60493.00;5044550;28;45804;-81
2022/09/17 08:06:06;;;;;;;;;0.00;0.00;;;;;-144.76;100.00;60493.00;5029780;28;45398;-81
2022/09/17 08:08:33;;;;;;;;;1.00;0.00;;;;;-144.76;100.00;60493.00;5044145;28;45660;-78
2022/09/17 08:11:03;;;;;;;;;1.75;1.00;;;;;-144.76;100.00;60493.00;5049205;28;44999;-79
2022/09/17 08:13:29;;;;;;;;;1.25;1.25;;;;;-144.76;100.00;60493.00;5042711;28;45391;-79
2022/09/17 08:16:03;;;;;;;;;1.00;0.00;;;;;-144.76;100.00;60493.00;5048299;28;44666;-79
2022/09/17 08:18:28;;;;;;;;;0.25;0.00;;;;;-144.76;100.00;60493.00;5044931;28;45136;-79
2022/09/17 08:20:58;;;;;;;;;3.00;1.00;;;;;-144.76;100.00;60493.00;5047481;28;45320;-79
2022/09/17 08:23:25;;;;;;;;;0.00;0.00;;;;;-144.76;100.00;60493.00;5023779;28;47188;-79
2022/09/17 08:25:55;;;;;;;;;0.00;0.00;;;;;-144.76;100.00;60493.00;5047782;28;45105;-79
2022/09/17 08:28:21;;;;;;;;;1.50;1.50;;;;;-144.76;100.00;60493.00;5042441;28;45531;-79
2022/09/17 08:30:47;;;;;;;;;1.00;0.00;;;;;-144.76;100.00;60493.00;5049731;28;44935;-79
2022/09/17 08:33:12;;;;;;;;;0.00;0.00;;;;;-144.76;100.00;60493.00;5040183;28;45424;-81
2022/09/17 08:35:38;;;;;;;;;2.75;1.00;;;;;-144.76;100.00;60493.00;5046735;28;44914;-79
2022/09/17 08:38:03;;;;;;;;;2.00;0.50;;;;;-144.76;100.00;60493.00;5044691;28;45511;-79
2022/09/17 08:40:28;;;;;;;;;0.50;0.00;;;;;-144.76;100.00;60493.00;5044301;28;50356;-79
2022/09/17 08:43:00;;;;;;;;;0.00;0.00;;;;;-144.76;100.00;60493.00;5042383;28;45435;-79
2022/09/17 08:45:26;;;;;;;;;1.00;0.75;;;;;-144.76;100.00;60493.00;5045242;28;45507;-79
2022/09/17 08:47:58;;;;;;;;;0.50;0.50;;;;;-144.76;100.00;60493.00;5042695;28;45320;-79
2022/09/17 08:50:31;;;;;;;;;1.50;0.00;;;;;-144.76;100.00;60493.00;5043587;28;45272;-79
2022/09/17 08:53:12;;;;;;;;;0.50;0.50;;;;;-144.76;100.00;60493.00;5039017;28;45655;-79
2022/09/17 08:55:43;;;;;;;;;0.50;0.25;;;;;-144.76;100.00;60493.00;5042642;28;45802;-79
2022/09/17 08:58:27;;;;;;;;;0.00;0.00;;;;;-144.76;100.00;60493.00;5023073;28;45539;-79
2022/09/17 09:01:31;;;;;;;;;1.00;0.00;;;;;-144.76;100.00;60493.00;5042996;28;45356;-79
2022/09/17 09:04:25;;;;;;;;;0.00;0.00;;;;;-144.76;100.00;60493.00;5041281;28;46336;-79
2022/09/17 09:07:03;;;;;;;;;2.00;1.00;;;;;-144.76;100.00;60493.00;5025190;28;45421;-79
2022/09/17 09:09:38;;;;;;;;;0.00;0.00;;;;;-144.76;100.00;60493.00;5042126;28;45339;-78
2022/09/17 09:12:16;;;;;;;;;1.00;0.00;;;;;-144.76;100.00;60493.00;5040950;28;45013;-79
2022/09/17 09:14:53;;;;;;;;;1.00;1.00;;;;;-144.76;100.00;60493.00;5047625;28;45268;-79
2022/09/17 09:17:22;;;;;;;;;0.00;0.00;;;;;-144.76;100.00;60493.00;5040344;28;45752;-79
2022/09/17 09:19:48;;;;;;;;;0.25;0.00;;;;;-144.76;100.00;60493.00;5044052;28;45431;-79
2022/09/17 09:22:38;;;;;;;;;1.00;1.00;;;;;-144.76;100.00;60493.00;5032294;28;45066;-79
2022/09/17 09:25:30;;;;;;;;;0.00;0.00;;;;;-144.76;100.00;60493.00;5047200;28;46459;-79
2022/09/17 09:27:56;;;;;;;;;0.75;0.00;;;;;-144.76;100.00;60493.00;5046988;28;45561;-80
2022/09/17 09:30:23;;;;;;;;;0.00;0.00;;;;;-144.76;100.00;60493.00;5042735;28;45447;-81
2022/09/17 09:32:59;;;;;;;;;2.00;1.00;;;;;-144.76;100.00;60493.00;5042369;28;45352;-79
2022/09/17 09:35:27;;;;;;;;;1.00;1.00;;;;;-144.76;100.00;60493.00;5041998;28;45542;-80
2022/09/17 09:38:03;;;;;;;;;1.00;1.00;;;;;-144.76;100.00;60493.00;5045504;28;45832;-79
2022/09/17 09:40:54;;;;;;;;;1.00;0.25;;;;;-144.76;100.00;60493.00;5051322;28;45438;-79
2022/09/17 09:43:33;;;;;;;;;1.00;1.00;;;;;-144.76;100.00;60493.00;5045283;28;45282;-79
2022/09/17 09:46:18;;;;;;;;;0.50;0.25;;;;;-144.76;100.00;60493.00;5046965;28;45456;-79
2022/09/17 09:49:06;;;;;;;;;0.00;0.00;;;;;-144.76;100.00;60493.00;5048316;28;45281;-79
2022/09/17 09:52:03;;;;;;;;;0.25;0.25;;;;;-144.76;100.00;60493.00;5040369;28;45412;-79
2022/09/17 09:54:41;;;;;;;;;0.50;0.50;;;;;-144.76;100.00;60493.00;5009604;28;45215;-79
2022/09/17 09:57:12;;;;;;;;;2.00;0.25;;;;;-144.76;100.00;60493.00;5042799;28;45307;-79
2022/09/17 09:59:40;;;;;;;;;0.00;0.00;;;;;-144.76;100.00;60493.00;5048754;28;45521;-80
2022/09/17 10:02:06;;;;;;;;;0.00;0.00;;;;;-144.76;100.00;60493.00;5046415;28;45516;-80
2022/09/17 10:04:31;;;;;;;;;0.00;0.00;;;;;-144.76;100.00;60493.00;5047832;28;45450;-79
2022/09/17 10:07:08;;;;;;;;;2.50;1.50;;;;;-144.76;100.00;60493.00;5046323;28;45186;-79
2022/09/17 10:09:36;;;;;;;;;3.00;1.00;;;;;-144.76;100.00;60493.00;5048363;28;45218;-79
2022/09/17 10:12:15;;;;;;;;;1.25;1.00;;;;;-144.76;100.00;60493.00;5047513;28;45526;-80
2022/09/17 10:14:43;;;;;;;;;0.00;0.00;;;;;-144.76;100.00;60493.00;5047963;28;45437;-79
2022/09/17 10:17:22;;;;;;;;;1.25;1.00;;;;;-144.76;100.00;60493.00;5053016;28;45511;-79
2022/09/17 10:20:11;;;;;;;;;1.00;1.00;;;;;-144.76;100.00;60493.00;5043025;28;45878;-79
2022/09/17 10:22:46;;;;;;;;;0.50;0.50;;;;;-144.76;100.00;60493.00;5049519;28;45343;-79
2022/09/17 10:25:24;;;;;;;;;0.00;0.00;;;;;-144.76;100.00;60493.00;5047085;28;45334;-79
2022/09/17 10:27:49;;;;;;;;;1.75;1.00;;;;;-144.76;100.00;60493.00;5023811;28;46374;-79
2022/09/17 10:30:16;;;;;;;;;0.00;0.00;;;;;-144.76;100.00;60493.00;5048193;28;45638;-79
2022/09/17 10:32:42;;;;;;;;;0.75;0.75;;;;;-144.76;100.00;60493.00;5044847;28;45301;-79
2022/09/17 10:35:13;;;;;;;;;0.00;0.00;;;;;-144.76;100.00;60493.00;5046726;28;45100;-79
2022/09/17 10:37:43;;;;;;;;;1.00;1.00;;;;;-144.76;100.00;60493.00;5048286;28;45453;-80
2022/09/17 10:40:18;;;;;;;;;0.50;0.50;;;;;-144.76;100.00;60493.00;5043786;28;45745;-80
2022/09/17 10:43:10;;;;;;;;;0.00;0.00;;;;;-144.76;100.00;60493.00;5045482;28;45458;-79
2022/09/17 10:45:39;;;;;;;;;0.00;0.00;;;;;-144.76;100.00;60493.00;5046594;28;45420;-79
2022/09/17 10:48:15;;;;;;;;;1.00;1.00;;;;;-144.76;100.00;60493.00;5046786;28;45958;-79
2022/09/17 10:50:40;;;;;;;;;1.75;1.00;;;;;-144.76;100.00;60493.00;5046559;28;45414;-80
2022/09/17 10:53:14;;;;;;;;;0.75;0.00;;;;;-144.76;100.00;60493.00;5044767;28;45972;-81
2022/09/17 10:55:49;;;;;;;;;0.00;0.00;;;;;-144.76;100.00;60493.00;5046183;28;45258;-79
2022/09/17 10:58:33;;;;;;;;;0.00;0.00;;;;;-144.76;100.00;60493.00;5043711;28;45369;-81
2022/09/17 11:00:59;;;;;;;;;0.00;0.00;;;;;-144.76;100.00;60493.00;5046997;28;45971;-80
2022/09/17 11:03:45;;;;;;;;;0.00;0.00;;;;;-144.76;100.00;60493.00;5045054;28;45233;-80
2022/09/17 11:06:38;;;;;;;;;1.25;1.25;;;;;-144.76;100.00;60493.00;5027155;28;45563;-80
2022/09/17 11:09:28;;;;;;;;;1.00;0.00;;;;;-144.76;100.00;60493.00;5048428;28;45507;-80
2022/09/17 11:12:18;;;;;;;;;0.00;0.00;;;;;-144.76;100.00;60493.00;5040071;28;45491;-79
2022/09/17 11:15:00;;;;;;;;;1.00;1.00;;;;;-144.76;100.00;60493.00;5050734;28;45061;-79
2022/09/17 11:17:48;;;;;;;;;1.00;0.25;;;;;-144.76;100.00;60493.00;5045202;28;45412;-79
2022/09/17 11:20:51;;;;;;;;;2.00;1.00;;;;;-144.76;100.00;60493.00;5047685;28;45355;-81
2022/09/17 11:23:35;;;;;;;;;0.75;0.75;;;;;-144.76;100.00;60493.00;5043226;28;45511;-80
2022/09/17 11:26:22;;;;;;;;;1.00;0.00;;;;;-144.76;100.00;60493.00;5049107;28;45447;-80
2022/09/17 11:29:05;;;;;;;;;0.75;0.75;;;;;-144.76;100.00;60493.00;5045825;28;45374;-79